Time;durP1;ratioP1;P1;durP2;ratioP2;P2;SDS_P1;SDS_P2;PMS_P1;PMS_P2;Temp;Humidity;BMP_temperature;BMP_pressure;BME280_temperature;BME280_humidity;BME280_pressure;Samples;Min_cycle;Max_cycle;Signal;HPM_P1;HPM_P2
2022/06/18 00:01:34;;;;;;;8.00;5.55;;;19.00;99.90;;;;;;5043480;28;20047;-76
2022/06/18 00:04:16;;;;;;;8.90;5.47;;;18.90;99.90;;;;;;5061632;28;20058;-77
2022/06/18 00:06:50;;;;;;;8.48;5.78;;;18.90;99.90;;;;;;5058010;28;20052;-77
2022/06/18 00:09:20;;;;;;;6.85;4.78;;;18.80;99.90;;;;;;5044281;28;20152;-77
2022/06/18 00:14:32;;;;;;;5.93;5.20;;;18.80;99.90;;;;;;5055049;28;20040;-77
2022/06/18 00:16:58;;;;;;;6.38;5.65;;;18.80;99.90;;;;;;5060633;28;20050;-77
2022/06/18 00:19:25;;;;;;;9.38;5.40;;;18.80;99.90;;;;;;5074462;28;20056;-78
2022/06/18 00:21:51;;;;;;;7.93;5.72;;;18.80;99.90;;;;;;5063711;28;20058;-78
2022/06/18 00:24:19;;;;;;;9.00;6.05;;;18.70;99.90;;;;;;5044392;28;20048;-78
2022/06/18 00:26:49;;;;;;;7.57;5.97;;;18.70;99.90;;;;;;5045715;28;20118;-77
2022/06/18 00:29:18;;;;;;;6.60;5.72;;;18.70;99.90;;;;;;5038025;28;20580;-77
2022/06/18 00:31:44;;;;;;;7.20;5.07;;;18.70;99.90;;;;;;5046039;28;20042;-77
2022/06/18 00:34:11;;;;;;;7.32;5.40;;;18.70;99.90;;;;;;5044480;28;20526;-78
2022/06/18 00:36:40;;;;;;;6.80;5.97;;;18.70;99.90;;;;;;5030353;28;20073;-78
2022/06/18 00:39:09;;;;;;;8.60;6.05;;;18.60;99.90;;;;;;5060697;28;20612;-78
2022/06/18 00:41:36;;;;;;;8.23;6.82;;;18.60;99.90;;;;;;5063850;28;20055;-78
2022/06/18 00:44:07;;;;;;;9.15;5.95;;;18.60;99.90;;;;;;5042818;28;20040;-78
2022/06/18 00:46:35;;;;;;;6.93;5.70;;;18.50;99.90;;;;;;5077994;28;20036;-76
2022/06/18 00:49:08;;;;;;;6.82;5.57;;;18.50;99.90;;;;;;5063522;28;20055;-76
2022/06/18 00:51:42;;;;;;;8.50;6.43;;;18.50;99.90;;;;;;5044120;28;20040;-76
2022/06/18 00:54:14;;;;;;;9.43;6.10;;;18.50;99.90;;;;;;5075541;28;20534;-76
2022/06/18 00:56:53;;;;;;;10.95;6.88;;;18.50;99.90;;;;;;5028498;28;20101;-76
2022/06/18 00:59:26;;;;;;;8.55;7.63;;;18.50;99.90;;;;;;5073513;28;20044;-77
2022/06/18 01:01:54;;;;;;;8.05;6.88;;;18.50;99.90;;;;;;5063883;28;20062;-76
2022/06/18 01:04:34;;;;;;;9.07;6.88;;;18.40;99.90;;;;;;5021254;28;20150;-77
2022/06/18 01:07:26;;;;;;;9.77;7.90;;;18.50;99.90;;;;;;5061776;28;20063;-77
2022/06/18 01:09:53;;;;;;;9.93;7.03;;;18.40;99.90;;;;;;5079813;28;20482;-76
2022/06/18 01:12:22;;;;;;;12.80;7.25;;;18.50;99.90;;;;;;5048850;28;20052;-76
2022/06/18 01:14:53;;;;;;;11.30;7.45;;;18.50;99.90;;;;;;5025868;28;20153;-76
2022/06/18 01:17:20;;;;;;;8.82;7.25;;;18.40;99.90;;;;;;5024148;28;20109;-76
2022/06/18 01:19:50;;;;;;;8.75;7.53;;;18.40;99.90;;;;;;5041297;28;20055;-76
2022/06/18 01:22:38;;;;;;;9.75;7.93;;;18.40;99.90;;;;;;5055541;28;20130;-77
2022/06/18 01:25:07;;;;;;;13.25;8.35;;;18.40;99.90;;;;;;5055091;28;20090;-77
2022/06/18 01:27:39;;;;;;;8.32;7.53;;;18.40;99.90;;;;;;5058356;28;20552;-77
2022/06/18 01:30:14;;;;;;;12.27;8.95;;;18.40;99.90;;;;;;5023118;28;20051;-78
2022/06/18 01:32:42;;;;;;;9.27;8.38;;;18.40;99.90;;;;;;5042462;28;20048;-77
2022/06/18 01:35:10;;;;;;;8.90;7.55;;;18.40;99.90;;;;;;5008856;28;20503;-77
2022/06/18 01:37:50;;;;;;;8.88;7.97;;;18.40;99.90;;;;;;5019696;28;20036;-77
2022/06/18 01:40:39;;;;;;;10.27;8.02;;;18.40;99.90;;;;;;5010789;28;20044;-77
2022/06/18 01:43:10;;;;;;;11.77;7.53;;;18.30;99.90;;;;;;5066901;28;20052;-77
2022/06/18 01:45:38;;;;;;;10.23;9.02;;;18.30;99.90;;;;;;5060749;28;20127;-77
2022/06/18 01:48:16;;;;;;;8.68;7.78;;;18.40;99.90;;;;;;5041336;28;20051;-77
2022/06/18 01:50:48;;;;;;;8.30;7.45;;;18.30;99.90;;;;;;5075856;28;20686;-76
2022/06/18 01:53:23;;;;;;;11.98;7.35;;;18.30;99.90;;;;;;5061945;28;20055;-77
2022/06/18 01:56:04;;;;;;;10.75;8.23;;;18.30;99.90;;;;;;5042438;28;20043;-77
2022/06/18 01:58:40;;;;;;;9.82;7.57;;;18.30;99.90;;;;;;5059821;28;20746;-77
2022/06/18 02:01:33;;;;;;;8.88;7.97;;;18.30;99.90;;;;;;5050422;28;20044;-77
2022/06/18 02:04:02;;;;;;;9.43;7.50;;;18.30;99.90;;;;;;5063348;28;20372;-77
2022/06/18 02:06:34;;;;;;;10.48;8.00;;;18.40;99.90;;;;;;5057713;28;20083;-77
2022/06/18 02:09:04;;;;;;;12.45;8.75;;;18.30;99.90;;;;;;5058228;28;20048;-77
2022/06/18 02:11:32;;;;;;;13.00;9.27;;;18.30;99.90;;;;;;5055121;28;20048;-77
2022/06/18 02:14:07;;;;;;;10.55;8.98;;;18.30;99.90;;;;;;5045217;28;20616;-77
2022/06/18 02:16:40;;;;;;;12.57;8.77;;;18.30;99.90;;;;;;5043621;28;20051;-77
2022/06/18 02:19:07;;;;;;;14.48;8.88;;;18.30;99.90;;;;;;5059798;28;20058;-77
2022/06/18 02:21:43;;;;;;;12.23;9.23;;;18.40;99.90;;;;;;5077966;28;20063;-77
2022/06/18 02:24:10;;;;;;;11.05;9.90;;;18.40;99.90;;;;;;5057504;28;20109;-77
2022/06/18 02:26:40;;;;;;;14.07;9.40;;;18.40;99.90;;;;;;5043755;28;20475;-77
2022/06/18 02:29:18;;;;;;;9.40;8.45;;;18.50;99.90;;;;;;5028883;28;20043;-77
2022/06/18 02:31:45;;;;;;;14.30;9.55;;;18.50;99.90;;;;;;5028797;28;20036;-77
2022/06/18 02:34:19;;;;;;;10.43;9.32;;;18.60;99.90;;;;;;5025083;28;20514;-77
2022/06/18 02:36:46;;;;;;;12.85;10.35;;;18.60;99.90;;;;;;5023363;28;20614;-77
2022/06/18 02:39:39;;;;;;;10.50;9.32;;;18.60;99.90;;;;;;5060051;28;20040;-76
2022/06/18 02:42:12;;;;;;;15.77;9.68;;;18.60;99.90;;;;;;5039526;28;20043;-77
2022/06/18 02:44:40;;;;;;;11.38;8.60;;;18.60;99.90;;;;;;5049243;28;20445;-77
2022/06/18 02:47:11;;;;;;;11.65;9.15;;;18.60;99.90;;;;;;5028496;28;20043;-77
2022/06/18 02:49:42;;;;;;;11.35;9.68;;;18.60;99.90;;;;;;5049597;28;20097;-77
2022/06/18 02:52:08;;;;;;;16.83;9.52;;;18.60;99.90;;;;;;5049299;28;20059;-77
2022/06/18 02:54:37;;;;;;;11.02;10.02;;;18.50;99.90;;;;;;5031224;28;20052;-77
2022/06/18 02:57:12;;;;;;;11.40;10.20;;;18.50;99.90;;;;;;5047769;28;20070;-77
2022/06/18 02:59:38;;;;;;;10.32;9.43;;;18.50;99.90;;;;;;5062253;28;20128;-77
2022/06/18 03:02:07;;;;;;;11.35;10.20;;;18.40;99.90;;;;;;5017144;28;20048;-77
2022/06/18 03:04:33;;;;;;;13.57;10.93;;;18.40;99.90;;;;;;5050502;28;20100;-77
2022/06/18 03:06:59;;;;;;;12.02;10.35;;;18.40;99.90;;;;;;5044954;28;20063;-76
2022/06/18 03:09:26;;;;;;;12.65;9.55;;;18.40;99.90;;;;;;5028257;28;20135;-77
2022/06/18 03:12:07;;;;;;;12.27;10.90;;;18.40;99.90;;;;;;5059695;28;20675;-77
2022/06/18 03:14:35;;;;;;;13.55;11.02;;;18.40;99.90;;;;;;5025380;28;20048;-77
2022/06/18 03:17:03;;;;;;;12.55;10.23;;;18.40;99.90;;;;;;5014307;28;20044;-76
2022/06/18 03:19:39;;;;;;;12.80;11.10;;;18.40;99.90;;;;;;5046703;28;20032;-76
2022/06/18 03:22:13;;;;;;;13.30;11.98;;;18.40;99.90;;;;;;5061547;28;20075;-76
2022/06/18 03:24:41;;;;;;;12.30;11.10;;;18.40;99.90;;;;;;5047624;28;20082;-76
2022/06/18 03:27:12;;;;;;;13.68;10.88;;;18.40;99.90;;;;;;5013143;28;20044;-76
2022/06/18 03:29:41;;;;;;;14.23;11.20;;;18.40;99.90;;;;;;5030602;28;20047;-76
2022/06/18 03:32:09;;;;;;;12.95;11.63;;;18.30;99.90;;;;;;5045416;28;20046;-76
2022/06/18 03:34:35;;;;;;;12.25;11.07;;;18.30;99.90;;;;;;5043303;28;20053;-76
2022/06/18 03:37:02;;;;;;;12.35;11.07;;;18.20;99.90;;;;;;5066732;28;20041;-76
2022/06/18 03:39:28;;;;;;;14.73;12.05;;;18.20;99.90;;;;;;5028745;28;20131;-76
2022/06/18 03:41:55;;;;;;;12.55;11.32;;;18.20;99.90;;;;;;5041364;28;20150;-77
2022/06/18 03:44:23;;;;;;;13.20;11.90;;;18.20;99.90;;;;;;5062327;28;20401;-77
2022/06/18 03:46:51;;;;;;;13.82;12.43;;;18.10;99.90;;;;;;5077744;28;20812;-77
2022/06/18 03:49:30;;;;;;;13.23;11.82;;;18.20;99.90;;;;;;5032745;28;20065;-76
2022/06/18 03:51:59;;;;;;;14.57;11.55;;;18.20;99.90;;;;;;5042598;28;20044;-77
2022/06/18 03:54:25;;;;;;;13.63;12.30;;;18.10;99.90;;;;;;5047137;28;20466;-76
2022/06/18 03:56:52;;;;;;;14.38;12.93;;;18.20;99.90;;;;;;5064440;28;20566;-76
2022/06/18 03:59:18;;;;;;;15.40;12.52;;;18.10;99.90;;;;;;5044096;28;20047;-76
2022/06/18 04:01:45;;;;;;;16.45;12.30;;;18.20;99.90;;;;;;5063699;28;20478;-76
2022/06/18 04:04:14;;;;;;;15.60;12.73;;;18.20;99.90;;;;;;5077354;28;20525;-76
2022/06/18 04:06:44;;;;;;;;;;;18.20;99.90;;;;;;5045731;28;20052;-76
2022/06/18 04:09:29;;;;;;;18.27;11.73;;;18.20;99.90;;;;;;5079465;28;20276;-76
2022/06/18 04:11:56;;;;;;;13.80;12.35;;;18.30;99.90;;;;;;5071616;28;20048;-76
2022/06/18 04:14:22;;;;;;;13.90;12.30;;;18.30;99.90;;;;;;5012829;28;20057;-76
2022/06/18 04:17:14;;;;;;;15.80;12.77;;;18.30;99.90;;;;;;5041701;28;20044;-76
2022/06/18 04:19:41;;;;;;;18.02;12.02;;;18.40;99.90;;;;;;5059173;28;20531;-76
2022/06/18 04:22:09;;;;;;;15.68;12.77;;;18.50;99.90;;;;;;5059681;28;20510;-76
2022/06/18 04:24:44;;;;;;;18.05;13.93;;;18.60;99.90;;;;;;5028811;28;20079;-76
2022/06/18 04:27:10;;;;;;;16.38;13.55;;;18.60;99.90;;;;;;5063914;28;20075;-76
2022/06/18 04:29:36;;;;;;;16.75;13.45;;;18.60;99.90;;;;;;5045592;28;20048;-76
2022/06/18 04:32:04;;;;;;;15.43;13.30;;;18.70;99.90;;;;;;5021669;28;20044;-76
2022/06/18 04:34:31;;;;;;;17.38;14.07;;;18.70;99.90;;;;;;5026135;28;20549;-76
2022/06/18 04:37:08;;;;;;;15.75;14.05;;;18.70;99.90;;;;;;5057839;28;20056;-76
2022/06/18 04:39:39;;;;;;;18.17;14.57;;;18.80;99.90;;;;;;5046167;28;20048;-76
2022/06/18 04:42:37;;;;;;;18.25;15.15;;;18.80;99.90;;;;;;5032631;28;20419;-76
2022/06/18 04:45:03;;;;;;;20.77;15.55;;;18.80;99.90;;;;;;5027396;28;20039;-76
2022/06/18 04:47:50;;;;;;;17.58;15.10;;;18.90;99.90;;;;;;5047020;28;20059;-76
2022/06/18 04:50:20;;;;;;;20.35;15.77;;;18.90;99.90;;;;;;5011377;28;20142;-76
2022/06/18 04:52:46;;;;;;;18.83;15.80;;;19.00;99.90;;;;;;5043578;28;20054;-76
2022/06/18 04:55:12;;;;;;;19.33;15.00;;;19.00;99.90;;;;;;5045106;28;20043;-76
2022/06/18 04:57:39;;;;;;;20.60;15.80;;;19.00;99.90;;;;;;5058750;28;20040;-76
2022/06/18 05:00:07;;;;;;;23.27;14.43;;;19.10;99.90;;;;;;5024162;28;20054;-76
2022/06/18 05:02:49;;;;;;;19.85;15.15;;;19.10;99.90;;;;;;5046173;28;20057;-76
2022/06/18 05:05:31;;;;;;;18.17;15.15;;;19.20;99.90;;;;;;5048509;28;20459;-76
2022/06/18 05:08:15;;;;;;;23.48;15.43;;;19.30;99.90;;;;;;5029830;28;21007;-77
2022/06/18 05:10:53;;;;;;;20.77;14.23;;;19.40;99.90;;;;;;5044125;28;20067;-76
2022/06/18 05:13:29;;;;;;;21.98;14.95;;;19.70;99.90;;;;;;5059570;28;20048;-78
2022/06/18 05:16:14;;;;;;;24.25;15.48;;;19.80;99.90;;;;;;5058879;28;20105;-78
2022/06/18 05:18:45;;;;;;;20.63;14.35;;;20.00;99.90;;;;;;5044668;28;20074;-77
2022/06/18 05:21:12;;;;;;;20.80;14.13;;;20.10;99.90;;;;;;5043731;28;20048;-77
2022/06/18 05:23:39;;;;;;;18.60;15.55;;;20.30;99.90;;;;;;5043066;28;20048;-77
2022/06/18 05:26:12;;;;;;;19.55;13.98;;;20.40;99.90;;;;;;5027911;28;20048;-77
2022/06/18 05:28:38;;;;;;;18.13;14.98;;;20.40;99.90;;;;;;5053397;28;20044;-77
2022/06/18 05:31:04;;;;;;;17.48;13.38;;;20.50;99.90;;;;;;5043201;28;20384;-77
2022/06/18 05:33:32;;;;;;;17.05;13.38;;;20.60;99.90;;;;;;5046195;28;20079;-77
2022/06/18 05:35:59;;;;;;;17.67;13.55;;;20.80;99.90;;;;;;5030183;28;21016;-76
2022/06/18 05:38:26;;;;;;;18.08;13.48;;;20.80;99.90;;;;;;5026886;28;20069;-77
2022/06/18 05:40:53;;;;;;;20.40;12.98;;;20.90;99.90;;;;;;5043410;28;20040;-77
2022/06/18 05:43:19;;;;;;;19.52;13.18;;;21.00;99.90;;;;;;5044668;28;20051;-78
2022/06/18 05:45:47;;;;;;;18.40;14.05;;;21.30;99.90;;;;;;5064953;28;20067;-77
2022/06/18 05:48:14;;;;;;;18.65;13.60;;;21.30;99.90;;;;;;5025987;28;20163;-75
2022/06/18 05:50:40;;;;;;;19.98;13.75;;;21.30;99.90;;;;;;5045348;28;20048;-75
2022/06/18 05:53:06;;;;;;;21.58;13.13;;;21.30;99.90;;;;;;5036182;28;20056;-76
2022/06/18 05:55:35;;;;;;;19.17;12.63;;;21.40;99.90;;;;;;5061854;28;20644;-76
2022/06/18 05:58:28;;;;;;;16.90;13.52;;;21.50;99.90;;;;;;5056624;28;20089;-76
2022/06/18 06:01:02;;;;;;;20.33;14.18;;;21.60;99.90;;;;;;5026319;28;20047;-75
2022/06/18 06:03:28;;;;;;;20.20;13.48;;;21.80;99.90;;;;;;5043750;28;20078;-76
2022/06/18 06:05:54;;;;;;;24.08;13.23;;;21.40;99.90;;;;;;5027868;28;20041;-75
2022/06/18 06:08:21;;;;;;;21.30;13.80;;;21.60;99.90;;;;;;5032367;28;20844;-75
2022/06/18 06:13:34;;;;;;;24.15;13.18;;;22.00;99.90;;;;;;5045713;28;20094;-76
2022/06/18 06:16:00;;;;;;;18.40;13.07;;;22.10;99.90;;;;;;5081802;28;20040;-75
2022/06/18 06:18:27;;;;;;;17.92;13.27;;;22.20;99.90;;;;;;5041046;28;20255;-79
2022/06/18 06:20:54;;;;;;;21.27;13.15;;;22.50;99.90;;;;;;5033236;28;20076;-86
2022/06/18 06:23:21;;;;;;;22.15;14.35;;;22.60;99.90;;;;;;5038269;28;20460;-79
2022/06/18 06:25:49;;;;;;;36.05;32.30;;;22.50;99.90;;;;;;5048635;28;20052;-78
2022/06/18 06:28:23;;;;;;;20.88;14.77;;;22.70;99.90;;;;;;5064747;28;20046;-79
2022/06/18 06:30:50;;;;;;;18.60;13.18;;;22.80;99.90;;;;;;5043808;28;20048;-79
2022/06/18 06:33:16;;;;;;;19.45;13.10;;;22.90;99.90;;;;;;5028488;28;20888;-79
2022/06/18 06:35:45;;;;;;;26.45;19.20;;;23.10;99.90;;;;;;5046702;28;20435;-79
2022/06/18 06:38:12;;;;;;;24.40;14.25;;;23.00;99.90;;;;;;5078109;28;20696;-78
2022/06/18 06:40:42;;;;;;;17.45;12.90;;;23.30;99.90;;;;;;5048622;28;20048;-79
2022/06/18 06:43:12;;;;;;;21.33;17.30;;;23.40;99.90;;;;;;5061090;28;20051;-77
2022/06/18 06:45:38;;;;;;;16.52;12.95;;;23.60;99.90;;;;;;5046000;28;20055;-80
2022/06/18 06:48:05;;;;;;;20.38;14.00;;;23.70;99.90;;;;;;5077072;28;22208;-80
2022/06/18 06:50:32;;;;;;;17.77;12.77;;;23.70;99.90;;;;;;5063622;28;20531;-82
2022/06/18 06:52:59;;;;;;;16.02;11.95;;;23.90;99.90;;;;;;5048421;28;20541;-81
2022/06/18 06:58:17;;;;;;;17.87;11.77;;;24.00;99.90;;;;;;5082404;28;20082;-81
2022/06/18 07:00:47;;;;;;;24.70;19.85;;;23.90;99.90;;;;;;5025670;28;20039;-80
2022/06/18 07:03:15;;;;;;;19.15;11.02;;;23.90;99.90;;;;;;5039985;28;20094;-81
2022/06/18 07:05:41;;;;;;;26.88;24.17;;;24.30;99.90;;;;;;5022222;28;20059;-80
2022/06/18 07:08:07;;;;;;;15.70;10.07;;;24.40;99.90;;;;;;5027223;28;20044;-82
2022/06/18 07:10:34;;;;;;;17.05;12.07;;;24.30;99.90;;;;;;5055505;28;20297;-79
2022/06/18 07:13:00;;;;;;;15.13;9.88;;;24.50;99.90;;;;;;5045035;28;20059;-80
2022/06/18 07:15:26;;;;;;;16.10;8.70;;;24.60;99.90;;;;;;5026069;28;20044;-81
2022/06/18 07:17:52;;;;;;;17.90;8.57;;;24.80;99.90;;;;;;5043505;28;20388;-80
2022/06/18 07:20:25;;;;;;;12.88;7.13;;;25.00;99.90;;;;;;5029930;28;20480;-82
2022/06/18 07:22:56;;;;;;;17.67;11.10;;;24.90;99.90;;;;;;5074390;28;20055;-80
2022/06/18 07:25:22;;;;;;;26.67;23.40;;;24.90;99.90;;;;;;5013371;28;20520;-81
2022/06/18 07:27:52;;;;;;;14.68;7.60;;;25.30;99.90;;;;;;5060969;28;20039;-80
2022/06/18 07:30:19;;;;;;;14.05;7.82;;;25.40;99.90;;;;;;5045152;28;20052;-80
2022/06/18 07:32:48;;;;;;;15.20;7.15;;;25.40;99.90;;;;;;5042730;28;20127;-79
2022/06/18 07:35:39;;;;;;;39.20;35.38;;;25.60;99.90;;;;;;5045212;28;20039;-79
2022/06/18 07:38:07;;;;;;;12.13;6.63;;;25.40;99.90;;;;;;5095765;28;20063;-79
2022/06/18 07:40:43;;;;;;;13.05;8.90;;;25.60;99.90;;;;;;5045206;28;20067;-79
2022/06/18 07:43:16;;;;;;;16.17;6.72;;;25.80;99.90;;;;;;5043337;28;20059;-79
2022/06/18 07:45:44;;;;;;;11.57;5.85;;;25.90;99.90;;;;;;5044305;28;20508;-80
2022/06/18 07:48:31;;;;;;;11.77;6.20;;;26.20;99.90;;;;;;5049238;28;20058;-79
2022/06/18 07:50:57;;;;;;;9.52;5.78;;;26.20;99.90;;;;;;5026361;28;20132;-80
2022/06/18 07:53:25;;;;;;;11.65;5.60;;;26.40;99.90;;;;;;5043664;28;20048;-79
2022/06/18 07:55:52;;;;;;;11.52;5.68;;;26.50;99.90;;;;;;5045262;28;20048;-79
2022/06/18 07:58:21;;;;;;;9.68;5.07;;;26.40;99.90;;;;;;5059190;28;20043;-80
2022/06/18 08:00:47;;;;;;;11.35;5.15;;;26.60;99.90;;;;;;5031695;28;20055;-81
2022/06/18 08:03:15;;;;;;;25.90;20.15;;;26.70;99.90;;;;;;5042784;28;20055;-80
2022/06/18 08:05:43;;;;;;;15.70;5.68;;;26.90;99.90;;;;;;5019789;28;20043;-80
2022/06/18 08:08:09;;;;;;;11.00;6.63;;;27.00;99.90;;;;;;5030903;28;20060;-80
2022/06/18 08:10:37;;;;;;;13.35;7.55;;;27.30;99.90;;;;;;5029190;28;20136;-81
2022/06/18 08:13:04;;;;;;;13.35;7.93;;;27.50;99.90;;;;;;5059427;28;20044;-80
2022/06/18 08:15:32;;;;;;;9.80;4.95;;;27.70;99.90;;;;;;5020766;28;20048;-81
2022/06/18 08:17:58;;;;;;;9.57;4.47;;;27.60;99.90;;;;;;5044657;28;20044;-80
2022/06/18 08:20:26;;;;;;;11.35;6.70;;;27.70;99.90;;;;;;5050941;28;20094;-80
2022/06/18 08:22:55;;;;;;;8.77;5.03;;;27.70;98.40;;;;;;5024516;28;20048;-80
2022/06/18 08:25:24;;;;;;;11.52;4.90;;;27.60;99.90;;;;;;5061306;28;20117;-80
2022/06/18 08:27:51;;;;;;;9.25;5.18;;;27.70;99.90;;;;;;5061743;28;20054;-80
2022/06/18 08:30:21;;;;;;;11.10;5.13;;;27.80;99.90;;;;;;5035888;28;20590;-80
2022/06/18 08:32:47;;;;;;;7.97;4.45;;;28.00;99.90;;;;;;5061565;28;20060;-80
2022/06/18 08:35:13;;;;;;;8.05;4.38;;;28.10;99.90;;;;;;5060024;28;20929;-80
2022/06/18 08:37:41;;;;;;;11.30;4.82;;;28.20;99.50;;;;;;5044014;28;20352;-80
2022/06/18 08:40:35;;;;;;;12.48;4.38;;;28.40;98.00;;;;;;5041565;28;20051;-80
2022/06/18 08:43:14;;;;;;;11.63;4.32;;;28.40;99.20;;;;;;5045476;28;20104;-83
2022/06/18 08:45:57;;;;;;;7.90;4.10;;;28.30;97.60;;;;;;5024886;28;21813;-80
2022/06/18 08:48:41;;;;;;;12.25;5.10;;;28.40;99.10;;;;;;5059960;28;20044;-80
2022/06/18 08:51:31;;;;;;;9.80;4.65;;;28.20;99.80;;;;;;5021227;28;20040;-79
2022/06/18 08:54:34;;;;;;;14.07;10.07;;;28.20;95.50;;;;;;5041938;28;20056;-79
2022/06/18 08:57:09;;;;;;;11.05;4.22;;;28.30;98.90;;;;;;5037353;28;20045;-79
2022/06/18 09:00:03;;;;;;;8.98;3.67;;;28.60;92.90;;;;;;5055797;28;20048;-79
2022/06/18 09:02:46;;;;;;;8.90;3.42;;;28.70;93.80;;;;;;5030292;28;20060;-81
2022/06/18 09:05:33;;;;;;;10.45;3.58;;;28.50;93.70;;;;;;5058728;28;20055;-82
2022/06/18 09:08:35;;;;;;;7.10;2.97;;;28.60;96.50;;;;;;5076167;28;20059;-81
2022/06/18 09:11:10;;;;;;;10.32;3.80;;;28.90;96.90;;;;;;5045788;28;20126;-80
2022/06/18 09:13:48;;;;;;;8.32;3.53;;;29.30;96.70;;;;;;5060270;28;20507;-81
2022/06/18 09:16:18;;;;;;;10.65;4.03;;;29.30;92.70;;;;;;5062128;28;20492;-81
2022/06/18 09:18:51;;;;;;;;;;;29.30;90.90;;;;;;5062923;28;20040;-81
2022/06/18 09:21:38;;;;;;;8.32;3.35;;;29.10;87.80;;;;;;5034900;28;19927;-81
2022/06/18 09:24:07;;;;;;;8.48;3.58;;;29.60;96.60;;;;;;5071015;28;20048;-85
2022/06/18 09:26:48;;;;;;;8.52;3.50;;;29.70;94.30;;;;;;5060544;28;20610;-83
2022/06/18 09:29:35;;;;;;;8.80;3.97;;;29.90;92.00;;;;;;5073706;28;20685;-83
2022/06/18 09:32:11;;;;;;;9.48;5.97;;;30.10;72.50;;;;;;5061714;28;20079;-80
2022/06/18 09:34:49;;;;;;;12.02;5.10;;;29.80;83.90;;;;;;5027741;28;20047;-79
2022/06/18 09:37:22;;;;;;;10.02;3.55;;;29.90;77.00;;;;;;5093497;28;20489;-81
2022/06/18 09:39:54;;;;;;;6.40;3.65;;;30.00;90.00;;;;;;5080500;28;20736;-81
2022/06/18 09:42:44;;;;;;;8.02;3.40;;;30.40;73.50;;;;;;5058587;28;20043;-80
2022/06/18 09:45:28;;;;;;;8.68;3.13;;;30.10;79.90;;;;;;5059174;28;20044;-80
2022/06/18 09:47:55;;;;;;;7.82;3.60;;;30.20;82.60;;;;;;5057229;28;20417;-80
2022/06/18 09:50:35;;;;;;;6.30;2.75;;;30.30;84.00;;;;;;5052012;28;20721;-81
2022/06/18 09:53:14;;;;;;;6.43;2.75;;;29.90;83.80;;;;;;5043249;28;20063;-81
2022/06/18 09:55:49;;;;;;;7.05;3.33;;;30.50;74.40;;;;;;5040858;28;20040;-81
2022/06/18 09:58:22;;;;;;;9.98;2.97;;;30.60;72.70;;;;;;5042877;28;20054;-81
2022/06/18 10:00:50;;;;;;;8.00;3.03;;;30.70;76.50;;;;;;5039178;28;20043;-81
2022/06/18 10:08:54;;;;;;;8.10;3.55;;;30.60;83.60;;;;;;5043880;28;20078;-80
2022/06/18 10:11:22;;;;;;;7.20;3.60;;;30.80;74.10;;;;;;5061091;28;20438;-79
2022/06/18 10:13:56;;;;;;;8.50;3.25;;;30.60;82.30;;;;;;5039925;28;20479;-80
2022/06/18 10:16:40;;;;;;;13.32;4.65;;;30.70;77.80;;;;;;5073661;28;20052;-80
2022/06/18 10:19:32;;;;;;;8.88;3.30;;;31.30;68.60;;;;;;5043881;28;20074;-79
2022/06/18 10:22:17;;;;;;;7.78;2.88;;;31.20;72.10;;;;;;5061354;28;20155;-80
2022/06/18 10:25:16;;;;;;;6.13;2.88;;;31.10;74.40;;;;;;5052104;28;20113;-80
2022/06/18 10:27:48;;;;;;;9.55;4.20;;;31.20;70.40;;;;;;5042274;28;20072;-80
2022/06/18 10:30:18;;;;;;;10.73;6.63;;;31.20;70.80;;;;;;5026292;28;20051;-80
2022/06/18 10:32:44;;;;;;;9.25;4.03;;;31.10;73.70;;;;;;5054331;28;21386;-77
2022/06/18 10:35:46;;;;;;;8.23;4.30;;;31.30;73.00;;;;;;5043647;28;20067;-81
2022/06/18 10:38:12;;;;;;;7.35;2.92;;;32.00;66.40;;;;;;5024451;28;20426;-81
2022/06/18 10:41:19;;;;;;;7.60;3.00;;;31.70;71.10;;;;;;5078060;28;20639;-81
2022/06/18 10:43:57;;;;;;;5.03;2.60;;;32.10;64.60;;;;;;5062587;28;20074;-81
2022/06/18 10:46:24;;;;;;;7.22;2.80;;;32.20;66.50;;;;;;5041887;28;20072;-81
2022/06/18 10:48:56;;;;;;;9.25;3.60;;;32.30;64.30;;;;;;5060139;28;20495;-81
2022/06/18 10:51:25;;;;;;;9.85;3.03;;;32.30;64.90;;;;;;5041015;28;20137;-81
2022/06/18 10:54:00;;;;;;;10.25;7.18;;;32.20;62.60;;;;;;5043415;28;20060;-81
2022/06/18 10:56:32;;;;;;;6.95;3.38;;;32.30;61.90;;;;;;5045002;28;20048;-81
2022/06/18 10:59:01;;;;;;;5.88;3.00;;;32.10;64.70;;;;;;5058712;28;20047;-81
2022/06/18 11:01:42;;;;;;;7.07;3.15;;;31.90;64.00;;;;;;5031264;28;20097;-81
2022/06/18 11:04:29;;;;;;;7.65;2.85;;;31.80;61.70;;;;;;5065159;28;20055;-81
2022/06/18 11:07:02;;;;;;;7.05;2.58;;;32.10;64.70;;;;;;5046056;28;20084;-81
2022/06/18 11:09:31;;;;;;;8.82;2.50;;;31.90;62.20;;;;;;5047496;28;20050;-81
2022/06/18 11:12:19;;;;;;;6.78;2.67;;;32.00;65.50;;;;;;5044648;28;20560;-81
2022/06/18 11:14:45;;;;;;;6.63;2.22;;;32.20;62.90;;;;;;5064359;28;20048;-80
2022/06/18 11:17:43;;;;;;;7.53;2.45;;;31.90;62.40;;;;;;5063431;28;20571;-81
2022/06/18 11:20:23;;;;;;;7.22;2.30;;;32.30;58.80;;;;;;5058942;28;20100;-81
2022/06/18 11:23:16;;;;;;;5.47;2.20;;;32.50;56.60;;;;;;5047465;28;20735;-81
2022/06/18 11:25:50;;;;;;;5.75;2.95;;;32.60;59.60;;;;;;5063414;28;20044;-81
2022/06/18 11:28:21;;;;;;;6.72;2.65;;;32.50;56.70;;;;;;5042645;28;20108;-80
2022/06/18 11:30:50;;;;;;;9.07;3.00;;;32.50;57.90;;;;;;5045840;28;20044;-81
2022/06/18 11:33:28;;;;;;;8.30;2.70;;;32.70;57.40;;;;;;5052480;28;20531;-81
2022/06/18 11:35:54;;;;;;;7.05;3.05;;;32.70;56.50;;;;;;5059041;28;20136;-81
2022/06/18 11:38:33;;;;;;;6.70;2.33;;;32.20;57.50;;;;;;5046393;28;20055;-81
2022/06/18 11:41:21;;;;;;;5.60;2.83;;;32.40;57.80;;;;;;5079252;28;20155;-79
2022/06/18 11:43:50;;;;;;;5.45;2.50;;;32.50;56.80;;;;;;5048125;28;20052;-83
2022/06/18 11:46:31;;;;;;;11.65;8.98;;;32.30;58.50;;;;;;5050143;28;20043;-79
2022/06/18 11:49:29;;;;;;;7.43;3.58;;;31.90;58.90;;;;;;5049313;28;20040;-79
2022/06/18 11:52:24;;;;;;;5.57;2.58;;;31.70;59.60;;;;;;5076689;28;20044;-79
2022/06/18 11:55:18;;;;;;;8.25;4.00;;;31.20;59.20;;;;;;5059803;28;20281;-78
2022/06/18 11:58:02;;;;;;;;;;;31.70;60.70;;;;;;5045157;28;20083;-79
2022/06/18 12:00:50;;;;;;;10.35;7.85;;;31.70;60.80;;;;;;5046230;28;20065;-79
2022/06/18 12:03:33;;;;;;;11.38;3.17;;;32.30;57.70;;;;;;5027873;28;20051;-80
2022/06/18 12:06:12;;;;;;;8.35;3.15;;;32.30;56.30;;;;;;5042104;28;20040;-80
2022/06/18 12:08:41;;;;;;;10.48;4.55;;;32.40;59.60;;;;;;5059623;28;20105;-79
2022/06/18 12:11:44;;;;;;;7.03;3.28;;;32.80;57.70;;;;;;5059894;28;20040;-78
2022/06/18 12:14:34;;;;;;;10.43;4.38;;;33.00;55.00;;;;;;5048358;28;20043;-80
2022/06/18 12:17:15;;;;;;;5.18;1.90;;;33.30;53.80;;;;;;5059355;28;20063;-80
2022/06/18 12:20:10;;;;;;;6.10;1.98;;;33.50;57.10;;;;;;5047149;28;20047;-80
2022/06/18 12:22:38;;;;;;;3.78;2.08;;;33.30;56.40;;;;;;5063244;28;20051;-81
2022/06/18 12:25:23;;;;;;;4.70;1.70;;;32.90;56.90;;;;;;5055079;28;20511;-80
2022/06/18 12:28:10;;;;;;;7.93;3.03;;;33.00;57.10;;;;;;5056399;28;20044;-80
2022/06/18 12:30:41;;;;;;;6.90;2.72;;;32.40;58.10;;;;;;5036165;28;20044;-82
2022/06/18 12:33:23;;;;;;;5.88;2.38;;;32.80;58.30;;;;;;5043513;28;20163;-87
2022/06/18 12:36:07;;;;;;;12.90;10.18;;;32.50;57.40;;;;;;5046698;28;20044;-84
2022/06/18 12:39:02;;;;;;;7.13;2.17;;;32.50;59.80;;;;;;5017033;28;20078;-81
2022/06/18 12:41:52;;;;;;;31.45;28.35;;;31.60;61.50;;;;;;5019448;28;20781;-81
2022/06/18 12:44:29;;;;;;;9.02;5.75;;;31.30;65.00;;;;;;5085070;28;20051;-84
2022/06/18 12:47:19;;;;;;;7.97;5.22;;;31.00;68.60;;;;;;5058496;28;20040;-80
2022/06/18 12:50:18;;;;;;;11.30;8.93;;;31.00;81.90;;;;;;5062932;28;20044;-80
2022/06/18 12:53:10;;;;;;;8.48;4.72;;;30.70;82.20;;;;;;5058189;28;20048;-79
2022/06/18 12:55:48;;;;;;;11.57;5.72;;;30.50;87.10;;;;;;5062719;28;20060;-80
2022/06/18 12:58:23;;;;;;;5.88;2.00;;;30.30;87.50;;;;;;5045434;28;20050;-79
2022/06/18 13:01:02;;;;;;;5.38;2.70;;;30.10;95.50;;;;;;5045337;28;20118;-83
2022/06/18 13:03:41;;;;;;;3.83;1.88;;;29.50;95.20;;;;;;5042342;28;20104;-84
2022/06/18 13:06:26;;;;;;;10.38;9.20;;;29.40;96.10;;;;;;5077759;28;20043;-83
2022/06/18 13:09:01;;;;;;;11.85;10.65;;;29.40;97.40;;;;;;5028346;28;20048;-85
2022/06/18 13:11:59;;;;;;;7.85;5.35;;;29.50;97.40;;;;;;5046957;28;20048;-82
2022/06/18 13:14:32;;;;;;;8.57;7.10;;;29.70;97.50;;;;;;5061141;28;20047;-81
2022/06/18 13:17:07;;;;;;;7.40;4.68;;;29.60;97.00;;;;;;5039062;28;20040;-81
2022/06/18 13:19:48;;;;;;;4.32;1.60;;;29.40;97.50;;;;;;5048456;28;20040;-83
2022/06/18 13:22:23;;;;;;;4.30;1.65;;;29.30;98.70;;;;;;5059360;28;20056;-83
2022/06/18 13:28:21;;;;;;;5.43;2.95;;;29.20;98.40;;;;;;5031967;28;20079;-82
2022/06/18 13:30:54;;;;;;;4.90;1.48;;;29.50;99.70;;;;;;5056020;28;20055;-80